Le Roy, KS (66857)

1:14 AM CST on February 24, 2017 (GMT -0600)
South Burlington | | Change Station

Elev 1050 ft 38.18 °N, 95.75 °W | Updated 18 seconds ago

Overcast
Overcast
43.5 °F
Feels Like 40 °F
N
5.6
Wind Variable Wind from NW
Gusts 7.4 mph

Today
High -- | Low -- °F
--% Chance of Precip.
Yesterday
High -- | Low -- °F
Precip. -- in
Pressure 29.50 in
Visibility 10.0 miles
Clouds Mostly Cloudy 1400 ft
Windchill 40 °F
Dew Point 40 °F
Humidity 86%
Rainfall 0.00 in
Snow Depth Not available.
7:00 AM 6:11 PM
Waning Crescent, 6% visible
SPECI KCNU 240712Z AUTO 34014G23KT 10SM BKN014 07/04 A2950 RMK AO2 PK WND 34030/0654 T00720044
Pressure 29.50 in
Visibility 10.0 miles
Clouds Mostly Cloudy 1400 ft
Windchill 40 °F
Dew Point 40 °F
Humidity 86%
Rainfall 0.00 in
Snow Depth Not available.
7:00 AM 6:11 PM
Waning Crescent, 6% visible
SPECI KCNU 240712Z AUTO 34014G23KT 10SM BKN014 07/04 A2950 RMK AO2 PK WND 34030/0654 T00720044

Get Your Daily Forecast Email!

Thanks for signing up!

Be on the lookout for a verification email in your inbox.

You'll start receiving the daily forecast at 8 AM.

×

10-Day Weather Forecast

Almanac

Astronomy

Feb. 24, 2017 Rise Set
Actual Time
Civil Twilight
Nautical Twilight
Astronomical Twilight
Moon
Length of Visible Light
Length of Day
Tomorrow will be .
, % of the Moon is Illuminated

Today's Extremes

State Highs State Lows

Community

WunderPhotos

Upload Photos

1,962,540 photos uploaded!

WunderBlog® & News

Nearby

Air Quality

  Air Quality AQ Index Pollutant
Not available.

Snow Depth

Station Depth Elevation

Earthquake Activity

City Distance Mag. Time & Date
Minimum magnitude displayed is 2.5.

Coastal Water Temperatures

Place Temperature

Stations

Nearby Weather Stations

Station Location Temp. Windchill Dew Point Humidity Wind Precip. Elev Updated Type
                   

Watches & Warnings

There are currently no watches in effect.